Latest Weather Observations for Applethorpe

IDQ60801

Issued at 5:02 pm EST Friday 20 October 2017 (issued every 30 minutes, with the page automatically refreshed every 10 minutes)

About weather observations | Map of weather stations | Latest weather observations for QLD | Other Formats
Station Details ID: 041175 Name: APPLETHORPE Lat: -28.62 Lon: 151.95 Height: 871.6 m
Data from the previous 72 hours. | See also: Recent months at Applethorpe
Date/Time
EST
Temp
°C
App
Temp
°C
Dew
Point
°C
Rel
Hum
%
Delta-T
°C
Wind Press
QNH
hPa
Press
MSL
hPa
Rain since
9am
mm
Dir  Spd
km/h
Gust
km/h
Spd
kts
Gust
kts
20/05:00pm 20.0 19.3 11.3 57 5.0 WNW 6 9 3 5 1019.7 1017.0 0.0
20/04:30pm 20.2 19.3 11.3 56 5.1 W 7 11 4 6 1019.7 1017.0 0.0
20/04:00pm 20.3 20.2 12.0 59 4.8 W 4 6 2 3 1019.7 1017.0 0.0
20/03:30pm 20.3 20.0 11.4 56 5.1 WNW 4 9 2 5 1019.8 1017.1 0.0
20/03:00pm 20.5 19.6 11.5 56 5.2 W 7 11 4 6 1020.0 1017.3 0.0
20/02:30pm 20.4 19.5 11.3 56 5.2 WNW 7 11 4 6 1020.4 1017.8 0.0
20/02:00pm 20.1 19.4 12.0 59 4.7 W 7 13 4 7 1021.0 1018.3 0.0
20/01:30pm 20.1 18.8 11.4 57 5.0 W 9 15 5 8 1021.4 1018.8 0.0
20/01:00pm 21.4 19.6 10.9 51 6.0 WNW 11 20 6 11 1021.6 1019.0 0.0
20/12:30pm 20.2 19.4 10.9 55 5.3 WNW 6 11 3 6 1022.0 1019.4 0.0
20/12:00pm 20.2 19.3 10.7 54 5.4 WSW 6 11 3 6 1022.4 1019.8 0.0
20/11:30am 20.5 19.5 11.0 54 5.4 NW 7 15 4 8 1022.7 1020.1 0.0
20/11:00am 21.0 20.2 11.0 52 5.7 W 6 9 3 5 1023.0 1020.4 0.0
20/10:30am 20.5 19.7 11.2 55 5.3 NW 6 9 3 5 1023.2 1020.6 0.0
20/10:00am 19.8 18.4 10.8 56 5.1 N 9 13 5 7 1023.7 1021.1 0.0
20/09:30am 18.6 18.1 10.8 60 4.4 NNW 4 11 2 6 1023.9 1021.3 0.0
20/09:00am 17.9 16.8 9.9 59 4.4 NW 6 11 3 6 1024.2 1021.6 0.0
20/08:30am 16.8 15.9 10.7 67 3.4 N 6 11 3 6 1024.3 1021.8 0.0
20/08:00am 16.1 15.4 11.3 73 2.7 NNW 6 9 3 5 1024.4 1021.9 0.0
20/07:30am 14.9 14.1 10.9 77 2.2 NNW 6 9 3 5 1024.1 1021.5 0.0
20/07:00am 13.3 13.6 12.2 93 0.6 E 2 4 1 2 1024.1 1021.5 0.0
20/06:30am 11.7 12.2 11.5 99 0.1 CALM 0 0 0 0 1024.1 1021.5 0.0
20/06:00am 9.6 9.4 9.2 97 0.2 CALM 0 2 0 1 1023.6 1021.0 0.0
20/05:30am 8.8 7.7 8.6 99 0.1 NE 4 6 2 3 1023.4 1020.8 0.0
20/05:00am 8.6 7.8 8.2 97 0.2 NE 2 4 1 2 1023.5 1020.9 0.0
20/04:30am 8.8 8.1 8.4 97 0.2 NE 2 4 1 2 1023.1 1020.5 0.0
20/04:00am 8.8 8.1 8.6 99 0.1 NE 2 4 1 2 1023.0 1020.4 0.0
20/03:30am 8.8 8.1 8.6 99 0.1 NE 2 4 1 2 1022.9 1020.3 0.0
20/03:00am 9.1 8.4 8.7 97 0.2 NE 2 4 1 2 1023.5 1020.9 0.0
20/02:30am 9.4 9.2 9.2 99 0.1 CALM 0 0 0 0 1023.7 1021.1 0.0
20/02:00am 9.7 9.6 9.5 99 0.1 CALM 0 0 0 0 1024.1 1021.5 0.0
20/01:30am 10.1 10.1 9.7 97 0.2 CALM 0 0 0 0 1024.4 1021.9 0.0
20/01:00am 10.4 10.5 10.2 99 0.1 CALM 0 0 0 0 1024.9 1022.3 0.0
20/12:30am 11.1 11.4 10.9 99 0.1 CALM 0 2 0 1 1025.3 1022.8 0.0
20/12:00am 11.5 11.8 10.9 96 0.3 CALM 0 2 0 1 1025.5 1023.0 0.0
 
Date/Time
EST
Temp
°C
App
Temp
°C
Dew
Point
°C
Rel
Hum
%
Delta-T
°C
Wind Press
QNH
hPa
Press
MSL
hPa
Rain since
9am
mm
Dir  Spd
km/h
Gust
km/h
Spd
kts
Gust
kts
19/11:30pm 12.1 11.9 11.7 97 0.2 NE 4 6 2 3 1026.0 1023.4 0.0
19/11:00pm 12.4 12.3 12.0 97 0.2 NE 4 6 2 3 1026.2 1023.6 0.0
19/10:30pm 12.9 12.8 12.2 95 0.4 NNE 4 6 2 3 1026.4 1023.9 0.0
19/10:00pm 13.7 13.4 12.6 93 0.6 NE 6 9 3 5 1026.3 1023.7 0.0
19/09:30pm 14.4 14.3 13.4 94 0.6 ENE 6 15 3 8 1026.3 1023.7 0.0
19/09:00pm 14.7 14.7 13.5 92 0.7 NE 6 9 3 5 1026.4 1023.9 0.0
19/08:30pm 14.4 14.6 13.2 92 0.7 ENE 4 7 2 4 1026.5 1024.0 0.0
19/08:00pm 15.0 15.3 13.4 90 0.9 ENE 4 9 2 5 1026.6 1024.1 0.0
19/07:30pm 15.4 15.7 13.5 88 1.1 ENE 4 9 2 5 1026.5 1024.0 0.0
19/07:00pm 15.4 15.6 13.0 85 1.4 E 4 11 2 6 1026.4 1023.9 0.0
19/06:30pm 15.8 15.6 13.0 83 1.6 E 6 7 3 4 1026.0 1023.4 0.0
19/06:00pm 16.8 17.0 13.0 78 2.2 ENE 4 7 2 4 1025.7 1023.2 0.0
19/05:30pm 18.0 17.5 12.5 70 3.2 E 7 15 4 8 1025.4 1022.9 0.0
19/05:00pm 19.2 18.1 11.9 62 4.2 ENE 9 17 5 9 1025.0 1022.4 0.0
19/04:30pm 19.9 18.7 11.5 58 4.8 NE 9 20 5 11 1024.9 1022.3 0.0
19/04:00pm 19.6 17.9 11.2 58 4.8 E 11 24 6 13 1024.9 1022.3 0.0
19/03:30pm 20.1 19.2 11.4 57 5.0 E 7 13 4 7 1025.1 1022.5 0.0
19/03:00pm 20.9 20.0 11.5 55 5.4 ENE 7 17 4 9 1025.2 1022.6 0.0
19/02:30pm 20.9 19.8 11.9 56 5.2 ENE 9 17 5 9 1025.5 1023.0 0.0
19/02:00pm 20.2 19.0 11.5 57 5.0 NE 9 19 5 10 1025.9 1023.3 0.0
19/01:30pm 20.1 19.0 11.8 59 4.8 ENE 9 17 5 9 1026.3 1023.7 0.0
19/01:00pm 20.8 19.3 12.0 57 5.1 ENE 11 20 6 11 1026.7 1024.2 0.0
19/12:30pm 20.1 18.1 11.6 58 4.9 ENE 13 24 7 13 1027.1 1024.5 0.0
19/12:00pm 19.1 17.4 11.2 60 4.5 E 11 22 6 12 1027.2 1024.6 0.0
19/11:30am 19.3 18.2 12.0 62 4.2 ENE 9 19 5 10 1027.4 1024.9 0.0
19/11:00am 18.6 17.0 11.6 63 4.0 ENE 11 22 6 12 1027.7 1025.2 0.0
19/10:30am 17.0 15.4 11.5 70 3.1 ENE 11 20 6 11 1027.8 1025.3 0.0
19/10:00am 16.6 14.6 11.4 71 2.9 E 13 24 7 13 1027.9 1025.4 0.0
19/09:30am 17.5 16.1 12.1 70 3.1 ENE 11 22 6 12 1028.0 1025.5 0.0
19/09:00am 15.4 13.5 11.8 79 2.0 ENE 13 20 7 11 1028.2 1025.7 0.6
19/08:30am 15.1 13.5 11.7 80 1.9 ENE 11 22 6 12 1028.1 1025.6 0.6
19/08:00am 14.9 13.5 12.1 83 1.6 ENE 11 22 6 12 1028.1 1025.6 0.6
19/07:30am 13.7 12.0 11.3 85 1.3 E 11 22 6 12 1027.9 1025.4 0.6
19/07:00am 13.0 12.1 11.2 89 1.0 ENE 7 17 4 9 1027.6 1025.1 0.6
19/06:30am 12.4 10.6 10.9 90 0.8 ENE 11 20 6 11 1027.4 1024.9 0.6
19/06:00am 12.0 10.8 10.3 89 0.9 ENE 7 19 4 10 1027.2 1024.6 0.6
19/05:30am 11.8 10.2 10.1 89 0.9 ENE 9 19 5 10 1027.2 1024.6 0.6
19/05:00am 11.9 10.0 10.4 90 0.8 E 11 24 6 13 1026.7 1024.2 0.6
19/04:30am 12.5 11.1 11.0 90 0.8 ENE 9 20 5 11 1026.7 1024.2 0.6
19/04:00am 12.6 10.5 11.1 91 0.8 E 13 26 7 14 1026.5 1024.0 0.6
19/03:30am 12.4 10.6 10.9 90 0.8 ENE 11 24 6 13 1026.3 1023.7 0.6
19/03:00am 12.4 10.6 10.9 90 0.8 ENE 11 20 6 11 1026.4 1023.9 0.6
19/02:30am 12.4 10.7 11.1 92 0.7 E 11 28 6 15 1026.3 1023.7 0.6
19/02:00am 12.3 10.5 11.0 92 0.7 E 11 26 6 14 1026.6 1024.1 0.6
19/01:30am 12.3 10.5 10.8 90 0.8 ENE 11 22 6 12 1026.9 1024.4 0.6
19/01:00am 12.4 10.6 10.9 90 0.8 E 11 30 6 16 1027.1 1024.5 0.6
19/12:30am 12.5 10.3 10.8 89 0.9 E 13 32 7 17 1027.4 1024.9 0.6
19/12:00am 12.7 11.1 11.4 92 0.7 E 11 24 6 13 1027.7 1025.2 0.6
 
Date/Time
EST
Temp
°C
App
Temp
°C
Dew
Point
°C
Rel
Hum
%
Delta-T
°C
Wind Press
QNH
hPa
Press
MSL
hPa
Rain since
9am
mm
Dir  Spd
km/h
Gust
km/h
Spd
kts
Gust
kts
18/11:30pm 12.8 10.9 11.7 93 0.6 E 13 24 7 13 1028.0 1025.5 0.6
18/11:00pm 12.8 10.9 11.9 94 0.5 E 13 30 7 16 1027.9 1025.4 0.6
18/10:30pm 12.8 10.8 11.5 92 0.7 E 13 30 7 16 1028.2 1025.7 0.6
18/10:00pm 12.7 11.2 11.8 94 0.5 E 11 20 6 11 1028.5 1026.0 0.6
18/09:30pm 12.7 10.7 11.6 93 0.6 E 13 30 7 16 1028.2 1025.7 0.6
18/09:00pm 12.9 11.6 12.4 97 0.3 E 11 20 6 11 1028.1 1025.6 0.4
18/08:30pm 12.9 11.9 12.4 97 0.3 E 9 22 5 12 1027.9 1025.4 0.2
18/08:00pm 12.9 11.4 12.0 94 0.5 E 11 22 6 12 1027.6 1025.1 0.2
18/07:30pm 13.2 11.1 11.2 88 1.1 E 13 30 7 16 1027.4 1024.9 0.2
18/07:00pm 13.2 11.2 11.6 90 0.9 E 13 26 7 14 1026.8 1024.3 0.2
18/06:30pm 13.4 10.6 11.4 88 1.1 ESE 17 32 9 17 1026.4 1023.9 0.2
18/06:00pm 13.6 11.7 11.8 89 1.0 E 13 24 7 13 1026.5 1024.0 0.2
18/05:30pm 13.7 11.9 12.1 90 0.9 ESE 13 26 7 14 1026.2 1023.6 0.2
18/05:00pm 14.2 12.8 12.3 88 1.1 E 11 24 6 13 1026.1 1023.5 0.2
18/04:30pm 14.0 12.8 12.9 93 0.6 ESE 11 22 6 12 1026.0 1023.4 0.2
18/04:00pm 14.4 12.0 12.6 89 1.0 E 17 35 9 19 1026.0 1023.4 0.0
18/03:30pm 15.7 13.4 12.9 83 1.6 E 17 33 9 18 1025.7 1023.2 0.0
18/03:00pm 15.5 14.1 13.4 87 1.2 E 13 33 7 18 1025.6 1023.1 0.0
18/02:30pm 15.4 14.0 13.3 87 1.2 ESE 13 26 7 14 1026.1 1023.5 0.0
18/02:00pm 17.1 15.4 13.7 80 2.0 E 15 30 8 16 1026.3 1023.7 0.0
18/01:30pm 16.8 14.4 13.9 83 1.7 ESE 19 35 10 19 1026.4 1023.9 0.0
18/01:00pm 16.4 14.8 14.0 86 1.4 ESE 15 28 8 15 1026.7 1024.2 0.0
18/12:30pm 17.6 16.4 13.9 79 2.2 E 13 30 7 16 1026.8 1024.3 0.0
18/12:00pm 15.9 13.9 13.9 88 1.2 ESE 17 30 9 16 1026.9 1024.4 0.0
18/11:30am 16.0 14.3 13.6 86 1.4 E 15 28 8 15 1027.4 1024.9 0.0
18/11:00am 15.7 14.0 13.6 87 1.2 ESE 15 32 8 17 1027.4 1024.9 0.0
18/10:30am 15.6 14.0 13.9 90 1.0 ESE 15 30 8 16 1027.6 1025.1 0.0
18/10:00am 15.1 13.0 13.5 90 0.9 E 17 33 9 18 1027.6 1025.1 0.0
18/09:30am 14.5 12.3 13.3 92 0.7 ESE 17 32 9 17 1027.6 1025.1 0.0
18/09:00am 14.6 13.2 13.4 92 0.7 ESE 13 26 7 14 1027.5 1025.0 0.8
18/08:30am 14.5 13.1 13.5 94 0.6 E 13 24 7 13 1027.3 1024.7 0.8
18/08:00am 13.8 12.2 12.9 94 0.5 ESE 13 24 7 13 1027.1 1024.5 0.8
18/07:30am 13.8 12.6 12.7 93 0.6 E 11 30 6 16 1026.7 1024.2 0.8
18/07:00am 13.2 11.6 12.7 97 0.3 ESE 13 28 7 15 1026.3 1023.7 0.8
18/06:30am 12.9 10.7 12.2 95 0.4 E 15 32 8 17 1026.3 1023.7 0.8
18/06:00am 12.8 11.0 12.1 95 0.4 E 13 24 7 13 1026.0 1023.4 0.8
18/05:30am 12.6 10.4 12.1 97 0.3 ESE 15 32 8 17 1025.3 1022.8 0.8
18/05:00am 12.5 10.6 11.8 95 0.4 E 13 24 7 13 1025.1 1022.5 0.8
18/04:30am 12.5 10.5 11.6 94 0.5 E 13 26 7 14 1024.8 1022.2 0.8
18/04:00am 12.5 10.1 11.4 93 0.6 E 15 32 8 17 1024.3 1021.8 0.8
18/03:30am 12.4 9.9 11.1 92 0.7 ESE 15 33 8 18 1024.2 1021.6 0.8
18/03:00am 12.4 9.4 10.6 89 1.0 ESE 17 32 9 17 1024.3 1021.8 0.8
18/02:30am 12.5 9.6 11.0 90 0.8 ESE 17 35 9 19 1024.4 1021.9 0.8
18/02:00am 12.4 9.5 11.1 92 0.7 ESE 17 35 9 19 1024.8 1022.2 0.8
18/01:30am 12.5 10.8 11.2 92 0.7 E 11 22 6 12 1025.1 1022.5 0.8
18/01:00am 12.6 9.7 11.1 91 0.8 ESE 17 30 9 16 1025.0 1022.4 0.8
18/12:30am 12.7 9.9 11.4 92 0.7 ESE 17 35 9 19 1025.2 1022.6 0.8
18/12:00am 12.7 9.7 11.8 94 0.5 E 19 33 10 18 1025.3 1022.8 0.8
 
Date/Time
EST
Temp
°C
App
Temp
°C
Dew
Point
°C
Rel
Hum
%
Delta-T
°C
Wind Press
QNH
hPa
Press
MSL
hPa
Rain since
9am
mm
Dir  Spd
km/h
Gust
km/h
Spd
kts
Gust
kts
17/11:30pm 12.8 10.2 12.1 95 0.4 E 17 35 9 19 1025.6 1023.1 0.8
17/11:00pm 12.8 10.3 12.3 97 0.3 E 17 32 9 17 1025.6 1023.1 0.6
17/10:30pm 12.9 10.7 12.2 95 0.4 E 15 32 8 17 1026.0 1023.4 0.6
17/10:00pm 12.8 10.7 12.3 97 0.3 E 15 35 8 19 1025.9 1023.3 0.6
17/09:30pm 12.8 10.2 12.1 95 0.4 ESE 17 32 9 17 1025.5 1023.0 0.6
17/09:00pm 12.8 10.2 12.1 95 0.4 ESE 17 32 9 17 1025.5 1023.0 0.6
17/08:30pm 12.7 10.5 12.2 97 0.3 E 15 32 8 17 1025.4 1022.9 0.4
17/08:00pm 12.6 9.6 11.9 95 0.4 ESE 19 41 10 22 1025.3 1022.8 0.4
17/07:30pm 12.8 9.8 12.1 95 0.4 ESE 19 32 10 17 1025.1 1022.5 0.2
17/07:00pm 12.8 9.8 12.1 95 0.4 ESE 19 33 10 18 1024.9 1022.3 0.2
17/06:30pm 12.8 10.2 12.1 95 0.4 ESE 17 33 9 18 1024.6 1022.0 0.2
17/06:00pm 13.0 11.7 12.5 97 0.3 ESE 11 22 6 12 1024.2 1021.6 0.2
17/05:30pm 13.0 11.3 12.5 97 0.3 ESE 13 28 7 15 1023.6 1021.0 0.2

Other Formats:

Comma delimited format used in spreadsheet applications
http://www.bom.gov.au/fwo/IDQ60801/IDQ60801.94553.axf

JavaScript Object Notation format (JSON) in row-major order
http://www.bom.gov.au/fwo/IDQ60801/IDQ60801.94553.json